createdAt,value
2018-12-08T00:00:37.192Z,99220.00
2018-12-08T00:03:07.741Z,99224.35
2018-12-08T00:05:38.268Z,99215.20
2018-12-08T00:08:08.817Z,99210.39
2018-12-08T00:10:40.305Z,99218.25
2018-12-08T00:13:10.817Z,99213.02
2018-12-08T00:15:41.295Z,99205.12
2018-12-08T00:18:11.809Z,99206.00
2018-12-08T00:20:42.308Z,99194.67
2018-12-08T00:23:12.779Z,99195.11
2018-12-08T00:25:43.314Z,99191.19
2018-12-08T00:28:13.860Z,99187.23
2018-12-08T00:31:01.159Z,99193.80
2018-12-08T00:33:31.625Z,99191.16
2018-12-08T00:36:02.189Z,99191.59
2018-12-08T00:38:32.725Z,99194.67
2018-12-08T00:41:03.262Z,99195.53
2018-12-08T00:43:33.807Z,99202.50
2018-12-08T00:46:04.265Z,99195.09
2018-12-08T00:48:34.727Z,99195.55
2018-12-08T00:51:06.499Z,99189.44
2018-12-08T00:53:37.003Z,99195.09
2018-12-08T00:56:07.723Z,99186.79
2018-12-08T00:58:39.356Z,99189.42
2018-12-08T01:01:10.410Z,99191.17
2018-12-08T01:03:41.268Z,99200.78
2018-12-08T01:06:11.815Z,99195.53
2018-12-08T01:08:42.465Z,99196.41
2018-12-08T01:11:13.046Z,99195.55
2018-12-08T01:13:43.558Z,99198.13
2018-12-08T01:16:14.120Z,99201.20
2018-12-08T01:18:44.688Z,99205.56
2018-12-08T01:21:15.215Z,99206.02
2018-12-08T01:23:45.843Z,99213.45
2018-12-08T01:26:16.486Z,99213.00
2018-12-08T01:28:47.007Z,99214.73
2018-12-08T01:31:17.554Z,99205.14
2018-12-08T01:33:48.083Z,99215.17
2018-12-08T01:36:18.644Z,99216.05
2018-12-08T01:38:49.153Z,99217.34
2018-12-08T01:41:19.645Z,99209.06
2018-12-08T01:43:50.177Z,99205.56
2018-12-08T01:46:20.712Z,99217.36
2018-12-08T01:48:51.261Z,99209.52
2018-12-08T01:51:21.820Z,99212.98
2018-12-08T01:53:52.352Z,99207.76
2018-12-08T01:56:22.907Z,99205.13
2018-12-08T01:58:53.682Z,99206.45
2018-12-08T02:01:24.242Z,99208.19
2018-12-08T02:03:54.782Z,99204.69
2018-12-08T02:06:25.396Z,99211.69
2018-12-08T02:08:55.916Z,99209.93
2018-12-08T02:11:28.538Z,99209.48
2018-12-08T02:13:59.101Z,99211.22
2018-12-08T02:16:29.652Z,99210.38
2018-12-08T02:19:00.180Z,99202.95
2018-12-08T02:21:30.678Z,99202.97
2018-12-08T02:24:01.213Z,99199.89
2018-12-08T02:26:32.070Z,99202.06
2018-12-08T02:29:02.616Z,99200.34
2018-12-08T02:31:33.143Z,99203.82
2018-12-08T02:34:03.686Z,99204.27
2018-12-08T02:36:34.218Z,99210.81
2018-12-08T02:39:06.712Z,99209.94
2018-12-08T02:41:39.254Z,99204.71
2018-12-08T02:44:09.803Z,99212.12
2018-12-08T02:46:40.296Z,99215.61
2018-12-08T02:49:10.809Z,99219.98
2018-12-08T02:51:41.363Z,99221.30
2018-12-08T02:54:11.951Z,99224.36
2018-12-08T02:56:42.504Z,99220.42
2018-12-08T02:59:12.994Z,99220.87
2018-12-08T03:01:43.712Z,99196.84
2018-12-08T03:04:14.270Z,99164.55
2018-12-08T03:06:44.799Z,99190.75
2018-12-08T03:09:15.447Z,99234.41
2018-12-08T03:11:46.120Z,99245.33
2018-12-08T03:14:16.637Z,99240.08
2018-12-08T03:16:47.145Z,99247.50
2018-12-08T03:19:17.635Z,99244.88
2018-12-08T03:21:48.122Z,99256.22
2018-12-08T03:24:18.658Z,99256.66
2018-12-08T03:26:49.183Z,99270.66
2018-12-08T03:29:19.813Z,99280.69
2018-12-08T03:31:50.513Z,99291.60
2018-12-08T03:34:21.156Z,99299.45
2018-12-08T03:36:51.634Z,99308.98
2018-12-08T03:39:22.165Z,99321.15
2018-12-08T03:41:52.671Z,99341.64
2018-12-08T03:44:23.153Z,99340.73
2018-12-08T03:46:53.708Z,99351.63
2018-12-08T03:49:24.181Z,99380.42
2018-12-08T03:51:54.844Z,99382.56
2018-12-08T03:54:25.335Z,99373.30
2018-12-08T03:56:55.837Z,99377.21
2018-12-08T03:59:26.486Z,99390.77
2018-12-08T04:01:57.011Z,99415.17
2018-12-08T04:04:27.550Z,99429.52
2018-12-08T04:06:58.179Z,99438.60
2018-12-08T04:09:28.777Z,99442.47
2018-12-08T04:11:59.351Z,99452.41
2018-12-08T04:14:29.926Z,99466.25
2018-12-08T04:17:00.463Z,99467.00
2018-12-08T04:19:30.981Z,99458.70
2018-12-08T04:22:01.521Z,99460.47
2018-12-08T04:24:35.069Z,99480.14
2018-12-08T04:27:05.685Z,99482.79
2018-12-08T04:29:36.173Z,99506.73
2018-12-08T04:32:06.702Z,99506.67
2018-12-08T04:34:37.200Z,99509.25
2018-12-08T04:37:07.747Z,99513.91
2018-12-08T04:39:38.225Z,99541.81
2018-12-08T04:42:08.687Z,99549.20
2018-12-08T04:44:39.219Z,99568.68
2018-12-08T04:47:09.759Z,99584.73
2018-12-08T04:49:40.245Z,99586.45
2018-12-08T04:52:10.761Z,99599.48
2018-12-08T04:54:41.387Z,99612.87
2018-12-08T04:57:11.857Z,99623.75
2018-12-08T04:59:42.429Z,99633.20
2018-12-08T05:02:12.886Z,99634.87
2018-12-08T05:04:43.644Z,99633.48
2018-12-08T05:07:14.139Z,99640.84
2018-12-08T05:09:44.659Z,99645.55
2018-12-08T05:12:15.116Z,99641.16
2018-12-08T05:14:45.673Z,99632.48
2018-12-08T05:17:16.231Z,99639.44
2018-12-08T05:19:46.780Z,99642.15
2018-12-08T05:22:17.346Z,99644.23
2018-12-08T05:24:47.937Z,99638.55
2018-12-08T05:27:18.515Z,99649.83
2018-12-08T05:29:49.298Z,99651.33
2018-12-08T05:32:19.862Z,99651.23
2018-12-08T05:34:50.422Z,99664.39
2018-12-08T05:37:22.031Z,99673.47
2018-12-08T05:39:52.587Z,99690.87
2018-12-08T05:42:23.116Z,99689.27
2018-12-08T05:44:53.605Z,99707.16
2018-12-08T05:47:24.105Z,99703.30
2018-12-08T05:49:54.904Z,99713.58
2018-12-08T05:52:25.439Z,99696.08
2018-12-08T05:54:56.024Z,99715.41
2018-12-08T05:57:26.587Z,99714.88
2018-12-08T05:59:57.098Z,99715.42
2018-12-08T06:02:27.731Z,99717.67
2018-12-08T06:04:58.396Z,99723.12
2018-12-08T06:07:29.064Z,99723.55
2018-12-08T06:09:59.572Z,99723.97
2018-12-08T06:12:33.931Z,99722.64
2018-12-08T06:15:04.453Z,99734.70
2018-12-08T06:17:34.982Z,99740.45
2018-12-08T06:20:06.238Z,99738.27
2018-12-08T06:22:36.838Z,99759.96
2018-12-08T06:25:11.902Z,99760.67
2018-12-08T06:27:57.554Z,99755.19
2018-12-08T06:30:28.225Z,99761.73
2018-12-08T06:32:59.214Z,99769.70
2018-12-08T06:35:29.786Z,99770.03
2018-12-08T06:38:00.285Z,99782.05
2018-12-08T06:40:31.327Z,99787.26
2018-12-08T06:43:01.826Z,99778.05
2018-12-08T06:45:32.395Z,99785.24
2018-12-08T06:48:02.889Z,99794.24
2018-12-08T06:50:33.581Z,99795.59
2018-12-08T06:53:04.161Z,99804.55
2018-12-08T06:55:34.706Z,99800.33
2018-12-08T06:58:05.172Z,99801.06
2018-12-08T07:00:35.796Z,99811.09
2018-12-08T07:03:06.295Z,99803.74
2018-12-08T07:05:36.905Z,99811.56
2018-12-08T07:08:07.394Z,99807.33
2018-12-08T07:10:37.880Z,99815.84
2018-12-08T07:13:08.427Z,99831.00
2018-12-08T07:15:38.960Z,99839.31
2018-12-08T07:18:09.532Z,99849.69
2018-12-08T07:20:39.997Z,99839.13
2018-12-08T07:23:10.659Z,99848.58
2018-12-08T07:25:41.262Z,99846.79
2018-12-08T07:28:11.815Z,99841.72
2018-12-08T07:30:42.486Z,99838.35
2018-12-08T07:33:12.952Z,99832.25
2018-12-08T07:35:43.542Z,99828.31
2018-12-08T07:38:14.158Z,99841.52
2018-12-08T07:40:44.737Z,99842.19
2018-12-08T07:43:15.319Z,99838.64
2018-12-08T07:45:45.857Z,99839.52
2018-12-08T07:48:16.567Z,99844.88
2018-12-08T07:50:47.160Z,99836.18
2018-12-08T07:53:17.679Z,99830.73
2018-12-08T07:55:48.255Z,99829.42
2018-12-08T07:58:18.805Z,99835.58
2018-12-08T08:00:49.355Z,99846.36
2018-12-08T08:03:20.010Z,99839.38
2018-12-08T08:05:50.591Z,99837.67
2018-12-08T08:08:21.196Z,99840.28
2018-12-08T08:10:51.850Z,99848.48
2018-12-08T08:13:22.408Z,99841.50
2018-12-08T08:15:53.200Z,99840.19
2018-12-08T08:18:24.018Z,99840.66
2018-12-08T08:20:54.589Z,99835.47
2018-12-08T08:23:25.317Z,99829.89
2018-12-08T08:25:55.875Z,99836.64
2018-12-08T08:28:26.650Z,99832.98
2018-12-08T08:30:57.206Z,99832.50
2018-12-08T08:33:27.750Z,99832.10
2018-12-08T08:35:58.482Z,99837.17
2018-12-08T08:38:29.286Z,99841.48
2018-12-08T08:41:00.175Z,99847.55
2018-12-08T08:43:30.692Z,99850.12
2018-12-08T08:46:01.267Z,99852.19
2018-12-08T08:48:31.727Z,99854.53
2018-12-08T08:51:02.282Z,99855.63
2018-12-08T08:53:33.959Z,99855.95
2018-12-08T08:56:04.613Z,99854.58
2018-12-08T08:58:35.251Z,99854.83
2018-12-08T09:01:05.865Z,99863.37
2018-12-08T09:03:36.400Z,99859.78
2018-12-08T09:06:07.054Z,99863.47
2018-12-08T09:08:37.608Z,99867.80
2018-12-08T09:11:10.318Z,99866.23
2018-12-08T09:13:41.250Z,99854.51
2018-12-08T09:16:11.895Z,99859.14
2018-12-08T09:18:42.716Z,99851.53
2018-12-08T09:21:13.438Z,99853.19
2018-12-08T09:23:44.558Z,99846.06
2018-12-08T09:26:16.148Z,99843.41
2018-12-08T09:28:46.770Z,99838.41
2018-12-08T09:31:18.744Z,99839.88
2018-12-08T09:33:49.458Z,99845.41
2018-12-08T09:36:19.963Z,99834.90
2018-12-08T09:38:50.677Z,99829.18
2018-12-08T09:41:22.257Z,99824.42
2018-12-08T09:43:52.782Z,99829.69
2018-12-08T09:46:23.388Z,99822.00
2018-12-08T09:48:53.932Z,99824.65
2018-12-08T09:51:24.493Z,99815.50
2018-12-08T09:53:55.102Z,99798.63
2018-12-08T09:56:25.898Z,99806.38
2018-12-08T09:58:56.479Z,99807.23
2018-12-08T10:01:27.257Z,99796.70
2018-12-08T10:03:57.890Z,99801.08
2018-12-08T10:06:28.477Z,99794.36
2018-12-08T10:08:59.190Z,99792.09
2018-12-08T10:11:29.780Z,99793.34
2018-12-08T10:14:00.666Z,99786.76
2018-12-08T10:16:31.294Z,99792.63
2018-12-08T10:19:04.426Z,99790.30
2018-12-08T10:21:37.978Z,99785.63
2018-12-08T10:24:08.563Z,99784.55
2018-12-08T10:26:39.101Z,99774.16
2018-12-08T10:29:09.767Z,99766.23
2018-12-08T10:31:40.306Z,99775.14
2018-12-08T10:34:10.907Z,99769.34
2018-12-08T10:36:41.489Z,99760.16
2018-12-08T10:39:12.124Z,99751.66
2018-12-08T10:41:42.859Z,99759.72
2018-12-08T10:44:15.418Z,99742.16
2018-12-08T10:46:46.020Z,99737.02
2018-12-08T10:49:16.617Z,99735.51
2018-12-08T10:51:47.315Z,99744.22
2018-12-08T10:54:19.876Z,99738.12
2018-12-08T10:56:50.443Z,99731.73
2018-12-08T10:59:20.984Z,99714.08
2018-12-08T11:01:59.020Z,99729.69
2018-12-08T11:04:30.088Z,99715.78
2018-12-08T11:07:00.618Z,99709.16
2018-12-08T11:09:31.102Z,99711.50
2018-12-08T11:12:01.705Z,99712.80
2018-12-08T11:14:32.706Z,99707.55
2018-12-08T11:17:03.278Z,99700.77
2018-12-08T11:19:34.590Z,99715.48
2018-12-08T11:22:05.211Z,99692.34
2018-12-08T11:24:35.751Z,99700.74
2018-12-08T11:27:06.346Z,99698.93
2018-12-08T11:29:38.098Z,99685.55
2018-12-08T11:32:08.632Z,99681.52
2018-12-08T11:34:39.324Z,99695.87
2018-12-08T11:37:09.873Z,99683.93
2018-12-08T11:39:40.470Z,99693.25
2018-12-08T11:42:10.978Z,99684.94
2018-12-08T11:44:42.030Z,99689.75
2018-12-08T11:47:12.627Z,99690.56
2018-12-08T11:49:43.240Z,99695.27
2018-12-08T11:52:13.839Z,99704.11
2018-12-08T11:54:44.411Z,99699.84
2018-12-08T11:57:16.215Z,99710.31
2018-12-08T11:59:46.912Z,99708.30
2018-12-08T12:02:17.452Z,99715.48
2018-12-08T12:04:47.975Z,99702.45
2018-12-08T12:07:18.449Z,99707.17
2018-12-08T12:09:49.230Z,99704.44
2018-12-08T12:12:19.755Z,99705.16
2018-12-08T12:14:50.871Z,99701.10
2018-12-08T12:17:21.409Z,99691.14
2018-12-08T12:19:51.950Z,99689.75
2018-12-08T12:22:22.571Z,99692.37
2018-12-08T12:24:53.105Z,99686.63
2018-12-08T12:27:23.740Z,99690.97
2018-12-08T12:29:54.213Z,99685.28
2018-12-08T12:32:24.680Z,99683.88
2018-12-08T12:34:55.274Z,99684.22
2018-12-08T12:37:25.768Z,99690.75
2018-12-08T12:39:56.330Z,99685.98
2018-12-08T12:42:26.903Z,99674.35
2018-12-08T12:44:57.450Z,99672.58
2018-12-08T12:47:28.090Z,99675.53
2018-12-08T12:49:58.628Z,99675.48
2018-12-08T12:52:29.138Z,99669.96
2018-12-08T12:54:59.660Z,99665.08
2018-12-08T12:57:30.197Z,99666.05
2018-12-08T13:00:00.762Z,99670.30
2018-12-08T13:02:33.291Z,99663.73
2018-12-08T13:05:03.780Z,99663.22
2018-12-08T13:07:34.327Z,99652.43
2018-12-08T13:10:05.155Z,99650.66
2018-12-08T13:12:35.675Z,99652.80
2018-12-08T13:15:06.603Z,99644.72
2018-12-08T13:17:37.118Z,99647.33
2018-12-08T13:20:07.870Z,99649.44
2018-12-08T13:22:38.353Z,99651.50
2018-12-08T13:25:23.763Z,99652.30
2018-12-08T13:27:54.405Z,99651.88
2018-12-08T13:30:25.018Z,99648.42
2018-12-08T13:32:55.568Z,99640.53
2018-12-08T13:35:54.922Z,99647.08
2018-12-08T13:38:25.485Z,99644.88
2018-12-08T13:40:56.037Z,99639.98
2018-12-08T13:43:26.599Z,99641.75
2018-12-08T13:45:57.109Z,99640.02
2018-12-08T13:48:29.343Z,99635.64
2018-12-08T13:51:00.035Z,99640.77
2018-12-08T13:53:36.698Z,99633.35
2018-12-08T13:56:03.153Z,99633.78
2018-12-08T13:58:33.670Z,99632.98
2018-12-08T14:01:04.147Z,99643.80
2018-12-08T14:03:34.645Z,99623.04
2018-12-08T14:06:05.181Z,99638.30
2018-12-08T14:08:35.675Z,99623.03
2018-12-08T14:11:06.223Z,99620.89
2018-12-08T14:13:36.772Z,99626.50
2018-12-08T14:16:07.247Z,99623.00
2018-12-08T14:18:37.737Z,99621.23
2018-12-08T14:21:08.252Z,99614.70
2018-12-08T14:23:38.790Z,99616.84
2018-12-08T14:26:09.426Z,99615.28
2018-12-08T14:28:40.160Z,99625.15
2018-12-08T14:31:10.825Z,99616.88
2018-12-08T14:33:41.333Z,99621.17
2018-12-08T14:36:11.904Z,99611.66
2018-12-08T14:38:42.438Z,99612.87
2018-12-08T14:41:13.889Z,99617.25
2018-12-08T14:43:44.468Z,99610.68
2018-12-08T14:46:15.060Z,99609.38
2018-12-08T14:48:45.578Z,99610.26
2018-12-08T14:51:16.202Z,99608.44
2018-12-08T14:53:46.786Z,99610.12
2018-12-08T14:56:17.290Z,99605.78
2018-12-08T14:58:47.921Z,99603.03
2018-12-08T15:01:18.449Z,99604.38
2018-12-08T15:03:49.042Z,99598.74
2018-12-08T15:06:19.594Z,99595.20
2018-12-08T15:08:50.132Z,99590.30
2018-12-08T15:11:20.674Z,99593.32
2018-12-08T15:13:51.230Z,99603.77
2018-12-08T15:16:22.613Z,99594.73
2018-12-08T15:18:53.135Z,99599.80
2018-12-08T15:21:23.672Z,99593.38
2018-12-08T15:23:54.232Z,99586.56
2018-12-08T15:26:24.919Z,99592.63
2018-12-08T15:28:55.474Z,99589.98
2018-12-08T15:31:26.596Z,99589.92
2018-12-08T15:33:57.173Z,99587.78
2018-12-08T15:36:28.005Z,99595.47
2018-12-08T15:38:58.512Z,99575.84
2018-12-08T15:41:29.118Z,99583.20
2018-12-08T15:44:00.738Z,99580.17
2018-12-08T15:46:31.327Z,99574.16
2018-12-08T15:49:01.813Z,99574.95
2018-12-08T15:51:32.402Z,99582.27
2018-12-08T15:54:02.922Z,99570.52
2018-12-08T15:56:33.853Z,99585.25
2018-12-08T15:59:04.384Z,99580.91
2018-12-08T16:01:35.629Z,99581.33
2018-12-08T16:04:06.100Z,99571.67
2018-12-08T16:06:37.057Z,99575.22
2018-12-08T16:09:07.830Z,99569.48
2018-12-08T16:11:38.679Z,99577.30
2018-12-08T16:14:09.554Z,99574.97
2018-12-08T16:16:40.102Z,99580.71
2018-12-08T16:54:06.403Z,99490.69
2018-12-08T17:01:26.290Z,99463.20
2018-12-08T17:03:57.628Z,99528.95
2018-12-08T17:06:28.213Z,99530.83
2018-12-08T17:08:58.839Z,99536.34
2018-12-08T17:11:29.549Z,99531.13
2018-12-08T17:14:00.097Z,99529.39
2018-12-08T17:16:30.615Z,99526.88
2018-12-08T17:19:01.160Z,99517.86
2018-12-08T17:21:31.644Z,99519.54
2018-12-08T17:24:02.254Z,99526.50
2018-12-08T17:26:32.921Z,99519.45
2018-12-08T17:29:03.576Z,99522.48
2018-12-08T17:31:34.175Z,99513.30
2018-12-08T17:34:04.856Z,99513.44
2018-12-08T17:36:36.016Z,99516.80
2018-12-08T17:39:09.307Z,99507.41
2018-12-08T17:42:21.043Z,99513.30
2018-12-08T17:44:51.743Z,99518.44
2018-12-08T17:47:22.262Z,99507.95
2018-12-08T17:49:52.875Z,99506.52
2018-12-08T17:52:23.426Z,99512.10
2018-12-08T17:54:53.954Z,99512.52
2018-12-08T17:57:24.540Z,99510.00
2018-12-08T18:00:03.428Z,99515.39
2018-12-08T18:02:34.110Z,99514.56
2018-12-08T18:05:04.790Z,99507.61
2018-12-08T18:07:36.313Z,99514.61
2018-12-08T18:10:08.367Z,99505.33
2018-12-08T18:12:38.877Z,99511.02
2018-12-08T18:15:09.380Z,99513.73
2018-12-08T18:17:39.890Z,99505.75
2018-12-08T18:20:10.453Z,99508.31
2018-12-08T18:22:41.153Z,99505.97
2018-12-08T18:25:11.860Z,99499.92
2018-12-08T18:27:42.811Z,99497.83
2018-12-08T18:30:13.332Z,99495.17
2018-12-08T18:32:43.977Z,99490.09
2018-12-08T18:35:14.530Z,99482.30
2018-12-08T18:37:45.055Z,99485.66
2018-12-08T18:40:15.661Z,99483.00
2018-12-08T18:42:46.229Z,99486.60
2018-12-08T18:45:16.724Z,99482.11
2018-12-08T18:47:47.251Z,99477.05
2018-12-08T18:50:17.964Z,99476.38
2018-12-08T18:52:49.986Z,99473.41
2018-12-08T18:55:20.518Z,99481.65
2018-12-08T18:57:51.151Z,99477.63
2018-12-08T19:00:21.965Z,99475.39
2018-12-08T19:02:52.591Z,99479.58
2018-12-08T19:05:29.858Z,99484.67
2018-12-08T19:08:00.379Z,99484.16
2018-12-08T19:10:30.863Z,99477.22
2018-12-08T19:13:02.504Z,99476.34
2018-12-08T19:15:33.047Z,99477.11
2018-12-08T19:18:03.599Z,99475.38
2018-12-08T19:20:34.140Z,99474.80
2018-12-08T19:23:04.677Z,99477.94
2018-12-08T19:25:35.358Z,99473.58
2018-12-08T19:28:05.897Z,99476.48
2018-12-08T19:30:36.418Z,99462.13
2018-12-08T19:33:14.363Z,99463.91
2018-12-08T19:35:41.658Z,99462.66
2018-12-08T19:38:12.411Z,99461.30
2018-12-08T19:40:42.897Z,99459.99
2018-12-08T19:43:13.410Z,99462.97
2018-12-08T19:45:44.099Z,99452.95
2018-12-08T19:48:14.727Z,99464.38
2018-12-08T19:50:45.286Z,99452.19
2018-12-08T19:53:15.895Z,99459.47
2018-12-08T19:55:46.403Z,99453.48
2018-12-08T19:58:17.073Z,99454.31
2018-12-08T20:00:47.559Z,99445.97
2018-12-08T20:03:18.200Z,99449.09
2018-12-08T20:05:49.062Z,99447.59
2018-12-08T20:08:20.835Z,99439.86
2018-12-08T20:10:51.762Z,99441.59
2018-12-08T20:13:23.235Z,99448.94
2018-12-08T20:15:56.083Z,99439.86
2018-12-08T20:18:27.487Z,99438.94
2018-12-08T20:20:58.500Z,99434.08
2018-12-08T20:23:30.774Z,99438.45
2018-12-08T20:26:01.609Z,99436.69
2018-12-08T20:28:32.579Z,99441.53
2018-12-08T20:31:03.235Z,99423.41
2018-12-08T20:33:33.793Z,99425.89
2018-12-08T20:36:05.322Z,99425.62
2018-12-08T20:38:35.862Z,99427.67
2018-12-08T20:41:06.529Z,99424.34
2018-12-08T20:43:37.322Z,99414.33
2018-12-08T20:46:08.210Z,99412.91
2018-12-08T20:48:39.215Z,99404.78
2018-12-08T20:51:09.996Z,99402.55
2018-12-08T20:53:40.765Z,99407.34
2018-12-08T20:56:11.340Z,99394.82
2018-12-08T20:58:41.987Z,99386.91
2018-12-08T21:01:12.600Z,99397.64
2018-12-08T21:03:43.281Z,99391.19
2018-12-08T21:06:13.958Z,99390.87
2018-12-08T21:08:44.476Z,99393.42
2018-12-08T21:11:15.113Z,99389.05
2018-12-08T21:13:46.844Z,99392.38
2018-12-08T21:16:17.418Z,99385.56
2018-12-08T21:18:47.985Z,99382.20
2018-12-08T21:21:18.654Z,99377.94
2018-12-08T21:23:49.184Z,99377.00
2018-12-08T21:26:19.766Z,99369.97
2018-12-08T21:28:50.457Z,99365.42
2018-12-08T21:31:21.033Z,99362.34
2018-12-08T21:33:51.674Z,99359.27
2018-12-08T21:36:22.238Z,99348.43
2018-12-08T21:38:52.852Z,99351.77
2018-12-08T21:41:23.418Z,99345.67
2018-12-08T21:43:53.994Z,99348.22
2018-12-08T21:46:24.670Z,99331.02
2018-12-08T21:48:55.545Z,99331.65
2018-12-08T21:51:26.132Z,99335.30
2018-12-08T21:53:56.842Z,99328.33
2018-12-08T21:56:27.440Z,99326.64
2018-12-08T21:58:58.119Z,99318.52
2018-12-08T22:01:28.745Z,99320.45
2018-12-08T22:03:59.373Z,99319.88
2018-12-08T22:06:31.918Z,99308.41
2018-12-08T22:09:02.900Z,99304.61
2018-12-08T22:11:48.605Z,99311.48
2018-12-08T22:14:19.498Z,99298.00
2018-12-08T22:16:50.247Z,99298.50
2018-12-08T22:19:21.576Z,99290.23
2018-12-08T22:21:52.301Z,99287.58
2018-12-08T22:24:23.174Z,99285.42
2018-12-08T22:26:55.417Z,99284.59
2018-12-08T22:29:29.044Z,99280.06
2018-12-08T22:32:00.692Z,99281.98
2018-12-08T22:34:31.534Z,99286.07
2018-12-08T22:37:02.074Z,99275.31
2018-12-08T22:39:32.626Z,99272.77
2018-12-08T22:42:03.115Z,99269.66
2018-12-08T22:44:33.637Z,99268.36
2018-12-08T22:47:04.135Z,99265.75
2018-12-08T22:49:34.655Z,99264.61
2018-12-08T22:52:05.196Z,99260.27
2018-12-08T22:54:35.703Z,99253.81
2018-12-08T22:57:06.242Z,99253.71
2018-12-08T22:59:36.889Z,99258.30
2018-12-08T23:02:07.634Z,99249.61
2018-12-08T23:04:38.193Z,99247.02
2018-12-08T23:07:08.973Z,99247.20
2018-12-08T23:09:39.701Z,99248.66
2018-12-08T23:12:10.204Z,99234.77
2018-12-08T23:14:40.962Z,99238.13
2018-12-08T23:17:11.450Z,99221.02
2018-12-08T23:19:42.070Z,99218.36
2018-12-08T23:22:12.540Z,99221.59
2018-12-08T23:24:43.495Z,99226.20
2018-12-08T23:27:14.138Z,99218.38
2018-12-08T23:29:44.738Z,99209.39
2018-12-08T23:32:15.274Z,99206.73
2018-12-08T23:34:45.792Z,99197.38
2018-12-08T23:37:16.333Z,99202.00
2018-12-08T23:39:46.846Z,99194.73
2018-12-08T23:42:17.520Z,99190.58
2018-12-08T23:44:48.060Z,99188.73
2018-12-08T23:47:18.567Z,99180.95
2018-12-08T23:49:49.110Z,99175.53
2018-12-08T23:52:20.509Z,99171.52
2018-12-08T23:54:51.011Z,99167.30
2018-12-08T23:57:21.514Z,99159.16
2018-12-08T23:59:52.001Z,99153.58
